sensor_id;sensor_type;location;lat;lon;timestamp;temperature;humidity
18733;DHT22;9495;51.210;2.934;2022-07-05T00:01:51;17.10;99.90
18733;DHT22;9495;51.210;2.934;2022-07-05T00:04:19;17.00;99.90
18733;DHT22;9495;51.210;2.934;2022-07-05T00:06:47;17.00;99.90
18733;DHT22;9495;51.210;2.934;2022-07-05T00:09:34;16.90;99.90
18733;DHT22;9495;51.210;2.934;2022-07-05T00:12:03;16.90;99.90
18733;DHT22;9495;51.210;2.934;2022-07-05T00:14:32;16.80;99.90
18733;DHT22;9495;51.210;2.934;2022-07-05T00:17:02;16.90;99.90
18733;DHT22;9495;51.210;2.934;2022-07-05T00:19:30;16.90;99.90
18733;DHT22;9495;51.210;2.934;2022-07-05T00:21:59;16.80;99.90
18733;DHT22;9495;51.210;2.934;2022-07-05T00:24:27;16.80;99.90
18733;DHT22;9495;51.210;2.934;2022-07-05T00:26:57;16.80;99.90
18733;DHT22;9495;51.210;2.934;2022-07-05T00:29:25;16.70;99.90
18733;DHT22;9495;51.210;2.934;2022-07-05T00:31:54;16.70;99.90
18733;DHT22;9495;51.210;2.934;2022-07-05T00:34:22;16.70;99.90
18733;DHT22;9495;51.210;2.934;2022-07-05T00:36:51;16.70;99.90
18733;DHT22;9495;51.210;2.934;2022-07-05T00:39:19;16.70;99.90
18733;DHT22;9495;51.210;2.934;2022-07-05T00:41:48;16.70;99.90
18733;DHT22;9495;51.210;2.934;2022-07-05T00:44:28;16.70;99.90
18733;DHT22;9495;51.210;2.934;2022-07-05T00:46:56;16.60;99.90
18733;DHT22;9495;51.210;2.934;2022-07-05T00:49:25;16.60;99.90
18733;DHT22;9495;51.210;2.934;2022-07-05T00:51:53;16.70;99.90
18733;DHT22;9495;51.210;2.934;2022-07-05T00:54:42;16.60;99.90
18733;DHT22;9495;51.210;2.934;2022-07-05T00:57:11;16.50;99.90
18733;DHT22;9495;51.210;2.934;2022-07-05T00:59:40;16.50;99.90
18733;DHT22;9495;51.210;2.934;2022-07-05T01:02:09;16.40;99.90
18733;DHT22;9495;51.210;2.934;2022-07-05T01:04:44;16.40;99.90
18733;DHT22;9495;51.210;2.934;2022-07-05T01:07:13;16.50;99.90
18733;DHT22;9495;51.210;2.934;2022-07-05T01:09:41;16.60;99.90
18733;DHT22;9495;51.210;2.934;2022-07-05T01:12:10;16.60;99.90
18733;DHT22;9495;51.210;2.934;2022-07-05T01:14:41;16.60;99.90
18733;DHT22;9495;51.210;2.934;2022-07-05T01:17:11;16.50;99.90
18733;DHT22;9495;51.210;2.934;2022-07-05T01:19:40;16.50;99.90
18733;DHT22;9495;51.210;2.934;2022-07-05T01:22:14;16.40;99.90
18733;DHT22;9495;51.210;2.934;2022-07-05T01:24:45;16.40;99.90
18733;DHT22;9495;51.210;2.934;2022-07-05T01:27:14;16.40;99.90
18733;DHT22;9495;51.210;2.934;2022-07-05T01:29:43;16.40;99.90
18733;DHT22;9495;51.210;2.934;2022-07-05T01:32:12;16.40;99.90
18733;DHT22;9495;51.210;2.934;2022-07-05T01:34:40;16.40;99.90
18733;DHT22;9495;51.210;2.934;2022-07-05T01:37:10;16.40;99.90
18733;DHT22;9495;51.210;2.934;2022-07-05T01:39:38;16.40;99.90
18733;DHT22;9495;51.210;2.934;2022-07-05T01:42:08;16.30;99.90
18733;DHT22;9495;51.210;2.934;2022-07-05T01:44:37;16.30;99.90
18733;DHT22;9495;51.210;2.934;2022-07-05T01:47:07;16.30;99.90
18733;DHT22;9495;51.210;2.934;2022-07-05T01:49:39;16.30;99.90
18733;DHT22;9495;51.210;2.934;2022-07-05T01:52:09;16.30;99.90
18733;DHT22;9495;51.210;2.934;2022-07-05T01:54:39;16.30;99.90
18733;DHT22;9495;51.210;2.934;2022-07-05T01:57:10;16.30;99.90
18733;DHT22;9495;51.210;2.934;2022-07-05T01:59:38;16.20;99.90
18733;DHT22;9495;51.210;2.934;2022-07-05T02:02:08;16.20;99.90
18733;DHT22;9495;51.210;2.934;2022-07-05T02:04:36;16.10;99.90
18733;DHT22;9495;51.210;2.934;2022-07-05T02:07:05;16.00;99.90
18733;DHT22;9495;51.210;2.934;2022-07-05T02:09:34;16.00;99.90
18733;DHT22;9495;51.210;2.934;2022-07-05T02:12:03;16.00;99.90
18733;DHT22;9495;51.210;2.934;2022-07-05T02:14:36;16.00;99.90
18733;DHT22;9495;51.210;2.934;2022-07-05T02:17:04;15.90;99.90
18733;DHT22;9495;51.210;2.934;2022-07-05T02:19:34;15.80;99.90
18733;DHT22;9495;51.210;2.934;2022-07-05T02:22:04;15.80;99.90
18733;DHT22;9495;51.210;2.934;2022-07-05T02:24:33;15.80;99.90
18733;DHT22;9495;51.210;2.934;2022-07-05T02:27:01;15.70;99.90
18733;DHT22;9495;51.210;2.934;2022-07-05T02:29:29;15.70;99.90
18733;DHT22;9495;51.210;2.934;2022-07-05T02:31:59;15.50;99.90
18733;DHT22;9495;51.210;2.934;2022-07-05T02:34:28;15.50;99.90
18733;DHT22;9495;51.210;2.934;2022-07-05T02:36:56;15.40;99.90
18733;DHT22;9495;51.210;2.934;2022-07-05T02:39:25;15.40;99.90
18733;DHT22;9495;51.210;2.934;2022-07-05T02:41:53;15.40;99.90
18733;DHT22;9495;51.210;2.934;2022-07-05T02:44:22;15.40;99.90
18733;DHT22;9495;51.210;2.934;2022-07-05T02:46:50;15.30;99.90
18733;DHT22;9495;51.210;2.934;2022-07-05T02:49:20;15.40;99.90
18733;DHT22;9495;51.210;2.934;2022-07-05T02:51:48;15.40;99.90
18733;DHT22;9495;51.210;2.934;2022-07-05T02:54:16;15.30;99.90
18733;DHT22;9495;51.210;2.934;2022-07-05T02:56:45;15.30;99.90
18733;DHT22;9495;51.210;2.934;2022-07-05T02:59:13;15.30;99.90
18733;DHT22;9495;51.210;2.934;2022-07-05T03:01:41;15.20;99.90
18733;DHT22;9495;51.210;2.934;2022-07-05T03:04:10;15.10;99.90
18733;DHT22;9495;51.210;2.934;2022-07-05T03:06:40;15.10;99.90
18733;DHT22;9495;51.210;2.934;2022-07-05T03:09:08;15.10;99.90
18733;DHT22;9495;51.210;2.934;2022-07-05T03:11:37;15.10;99.90
18733;DHT22;9495;51.210;2.934;2022-07-05T03:14:05;15.10;99.90
18733;DHT22;9495;51.210;2.934;2022-07-05T03:16:34;15.00;99.90
18733;DHT22;9495;51.210;2.934;2022-07-05T03:19:02;14.90;99.90
18733;DHT22;9495;51.210;2.934;2022-07-05T03:21:30;15.00;99.90
18733;DHT22;9495;51.210;2.934;2022-07-05T03:24:00;15.00;99.90
18733;DHT22;9495;51.210;2.934;2022-07-05T03:26:28;15.00;99.90
18733;DHT22;9495;51.210;2.934;2022-07-05T03:28:57;14.90;99.90
18733;DHT22;9495;51.210;2.934;2022-07-05T03:31:25;14.80;99.90
18733;DHT22;9495;51.210;2.934;2022-07-05T03:33:53;14.80;99.90
18733;DHT22;9495;51.210;2.934;2022-07-05T03:36:23;14.80;99.90
18733;DHT22;9495;51.210;2.934;2022-07-05T03:38:52;14.80;99.90
18733;DHT22;9495;51.210;2.934;2022-07-05T03:41:21;14.70;99.90
18733;DHT22;9495;51.210;2.934;2022-07-05T03:43:50;14.80;99.90
18733;DHT22;9495;51.210;2.934;2022-07-05T03:46:18;14.80;99.90
18733;DHT22;9495;51.210;2.934;2022-07-05T03:48:46;14.70;99.90
18733;DHT22;9495;51.210;2.934;2022-07-05T03:51:15;14.60;99.90
18733;DHT22;9495;51.210;2.934;2022-07-05T03:53:43;14.60;99.90
18733;DHT22;9495;51.210;2.934;2022-07-05T03:56:12;14.60;99.90
18733;DHT22;9495;51.210;2.934;2022-07-05T03:58:42;14.70;99.90
18733;DHT22;9495;51.210;2.934;2022-07-05T04:01:11;14.60;99.90
18733;DHT22;9495;51.210;2.934;2022-07-05T04:03:39;14.60;99.90
18733;DHT22;9495;51.210;2.934;2022-07-05T04:06:08;14.60;99.90
18733;DHT22;9495;51.210;2.934;2022-07-05T04:08:37;14.60;99.90
18733;DHT22;9495;51.210;2.934;2022-07-05T04:11:05;14.60;99.90
18733;DHT22;9495;51.210;2.934;2022-07-05T04:13:35;14.60;99.90
18733;DHT22;9495;51.210;2.934;2022-07-05T04:16:04;14.70;99.90
18733;DHT22;9495;51.210;2.934;2022-07-05T04:18:33;14.70;99.90
18733;DHT22;9495;51.210;2.934;2022-07-05T04:21:01;14.70;99.90
18733;DHT22;9495;51.210;2.934;2022-07-05T04:23:30;14.70;99.90
18733;DHT22;9495;51.210;2.934;2022-07-05T04:25:59;14.80;99.90
18733;DHT22;9495;51.210;2.934;2022-07-05T04:28:28;14.70;99.90
18733;DHT22;9495;51.210;2.934;2022-07-05T04:30:57;14.80;99.90
18733;DHT22;9495;51.210;2.934;2022-07-05T04:33:27;14.80;99.90
18733;DHT22;9495;51.210;2.934;2022-07-05T04:35:56;14.80;99.90
18733;DHT22;9495;51.210;2.934;2022-07-05T04:38:24;14.80;99.90
18733;DHT22;9495;51.210;2.934;2022-07-05T04:40:53;14.90;99.90
18733;DHT22;9495;51.210;2.934;2022-07-05T04:43:21;14.90;99.90
18733;DHT22;9495;51.210;2.934;2022-07-05T04:45:49;14.90;99.90
18733;DHT22;9495;51.210;2.934;2022-07-05T04:48:22;15.00;99.90
18733;DHT22;9495;51.210;2.934;2022-07-05T04:50:52;15.00;99.90
18733;DHT22;9495;51.210;2.934;2022-07-05T04:53:21;15.10;99.90
18733;DHT22;9495;51.210;2.934;2022-07-05T04:55:49;15.10;99.90
18733;DHT22;9495;51.210;2.934;2022-07-05T04:58:17;15.10;99.90
18733;DHT22;9495;51.210;2.934;2022-07-05T05:00:46;15.20;99.90
18733;DHT22;9495;51.210;2.934;2022-07-05T05:03:14;15.30;99.90
18733;DHT22;9495;51.210;2.934;2022-07-05T05:05:42;15.30;99.90
18733;DHT22;9495;51.210;2.934;2022-07-05T05:08:12;15.40;99.90
18733;DHT22;9495;51.210;2.934;2022-07-05T05:10:40;15.40;99.90
18733;DHT22;9495;51.210;2.934;2022-07-05T05:13:09;15.50;99.90
18733;DHT22;9495;51.210;2.934;2022-07-05T05:15:37;15.50;99.90
18733;DHT22;9495;51.210;2.934;2022-07-05T05:18:06;15.50;99.90
18733;DHT22;9495;51.210;2.934;2022-07-05T05:20:34;15.60;99.90
18733;DHT22;9495;51.210;2.934;2022-07-05T05:23:07;15.60;99.90
18733;DHT22;9495;51.210;2.934;2022-07-05T05:25:36;15.80;99.90
18733;DHT22;9495;51.210;2.934;2022-07-05T05:28:05;15.80;99.90
18733;DHT22;9495;51.210;2.934;2022-07-05T05:30:33;16.00;99.90
18733;DHT22;9495;51.210;2.934;2022-07-05T05:33:01;16.10;99.90
18733;DHT22;9495;51.210;2.934;2022-07-05T05:35:30;16.20;99.90
18733;DHT22;9495;51.210;2.934;2022-07-05T05:37:58;16.30;99.90
18733;DHT22;9495;51.210;2.934;2022-07-05T05:40:26;16.60;99.90
18733;DHT22;9495;51.210;2.934;2022-07-05T05:42:56;16.80;99.90
18733;DHT22;9495;51.210;2.934;2022-07-05T05:45:25;17.00;99.90
18733;DHT22;9495;51.210;2.934;2022-07-05T05:47:55;17.20;99.90
18733;DHT22;9495;51.210;2.934;2022-07-05T05:50:25;17.30;99.90
18733;DHT22;9495;51.210;2.934;2022-07-05T05:52:53;17.50;99.90
18733;DHT22;9495;51.210;2.934;2022-07-05T05:55:23;17.70;99.90
18733;DHT22;9495;51.210;2.934;2022-07-05T05:57:52;17.70;99.90
18733;DHT22;9495;51.210;2.934;2022-07-05T06:00:22;17.80;99.90
18733;DHT22;9495;51.210;2.934;2022-07-05T06:02:50;17.80;99.90
18733;DHT22;9495;51.210;2.934;2022-07-05T06:05:19;17.90;99.90
18733;DHT22;9495;51.210;2.934;2022-07-05T06:07:49;17.90;99.90
18733;DHT22;9495;51.210;2.934;2022-07-05T06:10:19;18.00;99.90
18733;DHT22;9495;51.210;2.934;2022-07-05T06:12:48;18.10;99.90
18733;DHT22;9495;51.210;2.934;2022-07-05T06:15:17;18.20;99.90
18733;DHT22;9495;51.210;2.934;2022-07-05T06:17:47;18.20;99.90
18733;DHT22;9495;51.210;2.934;2022-07-05T06:20:17;18.20;99.90
18733;DHT22;9495;51.210;2.934;2022-07-05T06:22:45;18.60;99.90
18733;DHT22;9495;51.210;2.934;2022-07-05T06:25:14;18.70;99.90
18733;DHT22;9495;51.210;2.934;2022-07-05T06:27:52;18.30;99.90
18733;DHT22;9495;51.210;2.934;2022-07-05T06:30:23;18.30;99.90
18733;DHT22;9495;51.210;2.934;2022-07-05T06:32:54;18.50;99.90
18733;DHT22;9495;51.210;2.934;2022-07-05T06:35:22;18.70;99.90
18733;DHT22;9495;51.210;2.934;2022-07-05T06:37:52;19.00;99.90
18733;DHT22;9495;51.210;2.934;2022-07-05T06:40:22;18.90;99.90
18733;DHT22;9495;51.210;2.934;2022-07-05T06:42:51;18.70;99.90
18733;DHT22;9495;51.210;2.934;2022-07-05T06:45:20;18.60;99.90
18733;DHT22;9495;51.210;2.934;2022-07-05T06:47:56;18.80;99.90
18733;DHT22;9495;51.210;2.934;2022-07-05T06:50:25;18.80;99.90
18733;DHT22;9495;51.210;2.934;2022-07-05T06:52:53;19.00;99.90
18733;DHT22;9495;51.210;2.934;2022-07-05T06:55:22;19.10;99.90
18733;DHT22;9495;51.210;2.934;2022-07-05T06:57:56;19.40;99.90
18733;DHT22;9495;51.210;2.934;2022-07-05T07:00:42;19.40;99.90
18733;DHT22;9495;51.210;2.934;2022-07-05T07:03:32;19.00;99.90
18733;DHT22;9495;51.210;2.934;2022-07-05T07:06:20;18.90;99.90
18733;DHT22;9495;51.210;2.934;2022-07-05T07:08:49;19.20;99.90
18733;DHT22;9495;51.210;2.934;2022-07-05T07:11:34;19.30;99.90
18733;DHT22;9495;51.210;2.934;2022-07-05T07:14:05;19.00;99.90
18733;DHT22;9495;51.210;2.934;2022-07-05T07:16:33;19.20;99.90
18733;DHT22;9495;51.210;2.934;2022-07-05T07:19:04;19.20;99.90
18733;DHT22;9495;51.210;2.934;2022-07-05T07:21:41;19.40;99.90
18733;DHT22;9495;51.210;2.934;2022-07-05T07:24:10;19.40;99.90
18733;DHT22;9495;51.210;2.934;2022-07-05T07:26:39;19.40;99.90
18733;DHT22;9495;51.210;2.934;2022-07-05T07:29:25;19.40;99.90
18733;DHT22;9495;51.210;2.934;2022-07-05T07:31:53;19.50;99.90
18733;DHT22;9495;51.210;2.934;2022-07-05T07:34:25;19.60;99.90
18733;DHT22;9495;51.210;2.934;2022-07-05T07:36:54;19.70;99.90
18733;DHT22;9495;51.210;2.934;2022-07-05T07:39:23;19.60;99.90
18733;DHT22;9495;51.210;2.934;2022-07-05T07:41:50;19.50;99.90
18733;DHT22;9495;51.210;2.934;2022-07-05T07:44:19;19.60;99.90
18733;DHT22;9495;51.210;2.934;2022-07-05T07:46:47;19.70;99.90
18733;DHT22;9495;51.210;2.934;2022-07-05T07:49:15;19.70;99.90
18733;DHT22;9495;51.210;2.934;2022-07-05T07:51:45;19.80;99.90
18733;DHT22;9495;51.210;2.934;2022-07-05T07:54:13;20.00;99.90
18733;DHT22;9495;51.210;2.934;2022-07-05T07:56:42;20.00;99.90
18733;DHT22;9495;51.210;2.934;2022-07-05T07:59:10;20.30;99.90
18733;DHT22;9495;51.210;2.934;2022-07-05T08:01:39;20.50;99.90
18733;DHT22;9495;51.210;2.934;2022-07-05T08:04:12;20.80;99.90
18733;DHT22;9495;51.210;2.934;2022-07-05T08:06:41;20.90;99.90
18733;DHT22;9495;51.210;2.934;2022-07-05T08:09:11;20.70;99.90
18733;DHT22;9495;51.210;2.934;2022-07-05T08:11:44;20.70;99.90
18733;DHT22;9495;51.210;2.934;2022-07-05T08:14:13;20.70;99.90
18733;DHT22;9495;51.210;2.934;2022-07-05T08:16:41;21.00;99.90
18733;DHT22;9495;51.210;2.934;2022-07-05T08:19:17;21.10;99.90
18733;DHT22;9495;51.210;2.934;2022-07-05T08:22:04;21.00;99.90
18733;DHT22;9495;51.210;2.934;2022-07-05T08:24:37;20.90;99.90
18733;DHT22;9495;51.210;2.934;2022-07-05T08:27:06;20.90;99.90
18733;DHT22;9495;51.210;2.934;2022-07-05T08:29:34;20.10;99.90
18733;DHT22;9495;51.210;2.934;2022-07-05T08:32:04;19.90;99.90
18733;DHT22;9495;51.210;2.934;2022-07-05T08:34:32;20.40;99.90
18733;DHT22;9495;51.210;2.934;2022-07-05T08:37:02;20.70;99.90
18733;DHT22;9495;51.210;2.934;2022-07-05T08:39:30;20.10;99.90
18733;DHT22;9495;51.210;2.934;2022-07-05T08:42:00;20.20;99.90
18733;DHT22;9495;51.210;2.934;2022-07-05T08:44:29;20.60;99.90
18733;DHT22;9495;51.210;2.934;2022-07-05T08:47:02;20.50;99.90
18733;DHT22;9495;51.210;2.934;2022-07-05T08:49:31;20.20;99.90
18733;DHT22;9495;51.210;2.934;2022-07-05T08:52:02;20.90;99.90
18733;DHT22;9495;51.210;2.934;2022-07-05T08:54:32;21.00;99.90
18733;DHT22;9495;51.210;2.934;2022-07-05T08:57:03;21.00;99.90
18733;DHT22;9495;51.210;2.934;2022-07-05T08:59:40;21.30;99.90
18733;DHT22;9495;51.210;2.934;2022-07-05T09:02:11;21.50;99.90
18733;DHT22;9495;51.210;2.934;2022-07-05T09:04:43;21.40;99.90
18733;DHT22;9495;51.210;2.934;2022-07-05T09:07:16;21.10;99.90
18733;DHT22;9495;51.210;2.934;2022-07-05T09:09:48;21.30;99.90
18733;DHT22;9495;51.210;2.934;2022-07-05T09:12:20;21.50;99.90
18733;DHT22;9495;51.210;2.934;2022-07-05T09:14:54;21.10;99.90
18733;DHT22;9495;51.210;2.934;2022-07-05T09:17:23;21.30;99.90
18733;DHT22;9495;51.210;2.934;2022-07-05T09:20:15;21.60;99.90
18733;DHT22;9495;51.210;2.934;2022-07-05T09:22:45;21.00;99.90
18733;DHT22;9495;51.210;2.934;2022-07-05T09:25:15;21.00;99.90
18733;DHT22;9495;51.210;2.934;2022-07-05T09:27:53;21.50;99.90
18733;DHT22;9495;51.210;2.934;2022-07-05T09:30:40;21.30;99.90
18733;DHT22;9495;51.210;2.934;2022-07-05T09:33:09;21.10;99.90
18733;DHT22;9495;51.210;2.934;2022-07-05T09:35:39;21.20;99.90
18733;DHT22;9495;51.210;2.934;2022-07-05T09:38:17;21.60;99.90
18733;DHT22;9495;51.210;2.934;2022-07-05T09:40:47;21.70;99.90
18733;DHT22;9495;51.210;2.934;2022-07-05T09:43:18;21.60;99.90
18733;DHT22;9495;51.210;2.934;2022-07-05T09:45:54;21.80;99.90
18733;DHT22;9495;51.210;2.934;2022-07-05T09:48:23;21.20;99.90
18733;DHT22;9495;51.210;2.934;2022-07-05T09:51:06;21.30;99.90
18733;DHT22;9495;51.210;2.934;2022-07-05T09:53:56;21.00;99.90
18733;DHT22;9495;51.210;2.934;2022-07-05T09:56:30;20.80;99.90
18733;DHT22;9495;51.210;2.934;2022-07-05T09:59:16;21.00;99.90
18733;DHT22;9495;51.210;2.934;2022-07-05T10:01:45;20.80;99.90
18733;DHT22;9495;51.210;2.934;2022-07-05T10:04:14;20.80;99.90
18733;DHT22;9495;51.210;2.934;2022-07-05T10:06:43;21.10;99.90
18733;DHT22;9495;51.210;2.934;2022-07-05T10:09:12;21.10;99.90
18733;DHT22;9495;51.210;2.934;2022-07-05T10:11:42;20.90;99.90
18733;DHT22;9495;51.210;2.934;2022-07-05T10:14:18;21.50;99.90
18733;DHT22;9495;51.210;2.934;2022-07-05T10:16:59;21.70;99.90
18733;DHT22;9495;51.210;2.934;2022-07-05T10:19:32;21.20;99.90
18733;DHT22;9495;51.210;2.934;2022-07-05T10:22:02;21.30;99.90
18733;DHT22;9495;51.210;2.934;2022-07-05T10:24:47;21.70;99.90
18733;DHT22;9495;51.210;2.934;2022-07-05T10:27:17;21.90;99.90
18733;DHT22;9495;51.210;2.934;2022-07-05T10:29:48;21.90;99.90
18733;DHT22;9495;51.210;2.934;2022-07-05T10:32:17;21.40;99.90
18733;DHT22;9495;51.210;2.934;2022-07-05T10:34:47;21.30;99.90
18733;DHT22;9495;51.210;2.934;2022-07-05T10:37:23;21.70;99.90
18733;DHT22;9495;51.210;2.934;2022-07-05T10:39:52;21.50;99.90
18733;DHT22;9495;51.210;2.934;2022-07-05T10:42:22;21.40;99.90
18733;DHT22;9495;51.210;2.934;2022-07-05T10:44:53;21.20;99.90
18733;DHT22;9495;51.210;2.934;2022-07-05T10:47:21;21.50;99.90
18733;DHT22;9495;51.210;2.934;2022-07-05T10:50:00;21.70;99.90
18733;DHT22;9495;51.210;2.934;2022-07-05T10:52:29;22.00;99.90
18733;DHT22;9495;51.210;2.934;2022-07-05T10:55:25;21.80;99.90
18733;DHT22;9495;51.210;2.934;2022-07-05T10:58:22;21.40;99.90
18733;DHT22;9495;51.210;2.934;2022-07-05T11:03:55;21.70;99.90
18733;DHT22;9495;51.210;2.934;2022-07-05T11:06:25;22.00;99.90
18733;DHT22;9495;51.210;2.934;2022-07-05T11:09:18;21.40;99.90
18733;DHT22;9495;51.210;2.934;2022-07-05T11:12:00;21.70;99.90
18733;DHT22;9495;51.210;2.934;2022-07-05T11:14:49;21.90;99.90
18733;DHT22;9495;51.210;2.934;2022-07-05T11:17:22;22.00;99.90
18733;DHT22;9495;51.210;2.934;2022-07-05T11:20:25;22.00;99.90
18733;DHT22;9495;51.210;2.934;2022-07-05T11:23:05;22.30;99.90
18733;DHT22;9495;51.210;2.934;2022-07-05T11:25:35;22.30;99.90
18733;DHT22;9495;51.210;2.934;2022-07-05T11:28:21;21.80;99.90
18733;DHT22;9495;51.210;2.934;2022-07-05T11:30:55;22.00;99.90
18733;DHT22;9495;51.210;2.934;2022-07-05T11:33:33;22.00;99.90
18733;DHT22;9495;51.210;2.934;2022-07-05T11:36:05;22.10;99.90
18733;DHT22;9495;51.210;2.934;2022-07-05T11:38:34;22.10;99.90
18733;DHT22;9495;51.210;2.934;2022-07-05T11:41:22;22.10;99.90
18733;DHT22;9495;51.210;2.934;2022-07-05T11:43:57;22.30;99.90
18733;DHT22;9495;51.210;2.934;2022-07-05T11:46:26;21.90;99.90
18733;DHT22;9495;51.210;2.934;2022-07-05T11:49:21;22.50;99.90
18733;DHT22;9495;51.210;2.934;2022-07-05T11:51:56;21.80;99.90
18733;DHT22;9495;51.210;2.934;2022-07-05T11:54:26;22.00;99.90
18733;DHT22;9495;51.210;2.934;2022-07-05T11:56:56;21.70;99.90
18733;DHT22;9495;51.210;2.934;2022-07-05T11:59:25;22.10;99.90
18733;DHT22;9495;51.210;2.934;2022-07-05T12:01:54;21.50;99.90
18733;DHT22;9495;51.210;2.934;2022-07-05T12:04:24;21.10;99.90
18733;DHT22;9495;51.210;2.934;2022-07-05T12:06:52;20.70;99.90
18733;DHT22;9495;51.210;2.934;2022-07-05T12:09:25;20.50;99.90
18733;DHT22;9495;51.210;2.934;2022-07-05T12:11:55;20.50;99.90
18733;DHT22;9495;51.210;2.934;2022-07-05T12:14:48;20.70;99.90
18733;DHT22;9495;51.210;2.934;2022-07-05T12:17:17;20.30;99.90
18733;DHT22;9495;51.210;2.934;2022-07-05T12:19:52;20.30;99.90
18733;DHT22;9495;51.210;2.934;2022-07-05T12:22:31;20.20;99.90
18733;DHT22;9495;51.210;2.934;2022-07-05T12:25:02;20.20;99.90
18733;DHT22;9495;51.210;2.934;2022-07-05T12:27:31;20.50;99.90
18733;DHT22;9495;51.210;2.934;2022-07-05T12:30:00;20.90;99.90
18733;DHT22;9495;51.210;2.934;2022-07-05T12:32:30;21.10;99.90
18733;DHT22;9495;51.210;2.934;2022-07-05T12:34:59;21.00;99.90
18733;DHT22;9495;51.210;2.934;2022-07-05T12:37:33;20.80;99.90
18733;DHT22;9495;51.210;2.934;2022-07-05T12:40:06;20.70;99.90
18733;DHT22;9495;51.210;2.934;2022-07-05T12:42:36;20.80;99.90
18733;DHT22;9495;51.210;2.934;2022-07-05T12:45:12;20.80;99.90
18733;DHT22;9495;51.210;2.934;2022-07-05T12:47:50;20.70;99.90
18733;DHT22;9495;51.210;2.934;2022-07-05T12:50:21;20.80;99.90
18733;DHT22;9495;51.210;2.934;2022-07-05T12:52:59;20.80;99.90
18733;DHT22;9495;51.210;2.934;2022-07-05T12:55:36;20.70;99.90
18733;DHT22;9495;51.210;2.934;2022-07-05T12:58:22;20.50;99.90
18733;DHT22;9495;51.210;2.934;2022-07-05T13:00:56;20.60;99.90
18733;DHT22;9495;51.210;2.934;2022-07-05T13:03:25;20.10;99.90
18733;DHT22;9495;51.210;2.934;2022-07-05T13:06:00;20.70;99.90
18733;DHT22;9495;51.210;2.934;2022-07-05T13:08:30;20.60;99.90
18733;DHT22;9495;51.210;2.934;2022-07-05T13:10:59;20.30;99.90
18733;DHT22;9495;51.210;2.934;2022-07-05T13:13:27;20.40;99.90
18733;DHT22;9495;51.210;2.934;2022-07-05T13:15:57;20.40;99.90
18733;DHT22;9495;51.210;2.934;2022-07-05T13:18:33;20.60;99.90
18733;DHT22;9495;51.210;2.934;2022-07-05T13:21:01;20.60;99.90
18733;DHT22;9495;51.210;2.934;2022-07-05T13:23:30;20.90;99.90
18733;DHT22;9495;51.210;2.934;2022-07-05T13:25:59;20.60;99.90
18733;DHT22;9495;51.210;2.934;2022-07-05T13:28:28;20.70;99.90
18733;DHT22;9495;51.210;2.934;2022-07-05T13:30:56;20.70;99.90
18733;DHT22;9495;51.210;2.934;2022-07-05T13:33:24;20.80;99.90
18733;DHT22;9495;51.210;2.934;2022-07-05T13:35:56;21.00;99.90
18733;DHT22;9495;51.210;2.934;2022-07-05T13:38:24;20.70;99.90
18733;DHT22;9495;51.210;2.934;2022-07-05T13:40:52;20.50;99.90
18733;DHT22;9495;51.210;2.934;2022-07-05T13:43:22;20.40;99.90
18733;DHT22;9495;51.210;2.934;2022-07-05T13:45:50;20.00;99.90
18733;DHT22;9495;51.210;2.934;2022-07-05T13:48:19;20.30;99.90
18733;DHT22;9495;51.210;2.934;2022-07-05T13:50:50;20.50;99.90
18733;DHT22;9495;51.210;2.934;2022-07-05T13:53:19;20.60;99.90
18733;DHT22;9495;51.210;2.934;2022-07-05T13:55:48;20.40;99.90
18733;DHT22;9495;51.210;2.934;2022-07-05T13:58:17;20.30;99.90
18733;DHT22;9495;51.210;2.934;2022-07-05T14:00:46;20.50;99.90
18733;DHT22;9495;51.210;2.934;2022-07-05T14:03:15;20.20;99.90
18733;DHT22;9495;51.210;2.934;2022-07-05T14:05:44;20.30;99.90
18733;DHT22;9495;51.210;2.934;2022-07-05T14:08:12;20.30;99.90
18733;DHT22;9495;51.210;2.934;2022-07-05T14:10:41;20.40;99.90
18733;DHT22;9495;51.210;2.934;2022-07-05T14:13:09;20.30;99.90
18733;DHT22;9495;51.210;2.934;2022-07-05T14:15:39;20.30;99.90
18733;DHT22;9495;51.210;2.934;2022-07-05T14:18:09;20.40;99.90
18733;DHT22;9495;51.210;2.934;2022-07-05T14:20:37;20.50;99.90
18733;DHT22;9495;51.210;2.934;2022-07-05T14:23:06;20.50;99.90
18733;DHT22;9495;51.210;2.934;2022-07-05T14:25:35;20.90;99.90
18733;DHT22;9495;51.210;2.934;2022-07-05T14:28:04;21.00;99.90
18733;DHT22;9495;51.210;2.934;2022-07-05T14:30:34;20.70;99.90
18733;DHT22;9495;51.210;2.934;2022-07-05T14:33:03;20.60;99.90
18733;DHT22;9495;51.210;2.934;2022-07-05T14:35:33;20.60;99.90
18733;DHT22;9495;51.210;2.934;2022-07-05T14:38:02;20.40;99.90
18733;DHT22;9495;51.210;2.934;2022-07-05T14:40:31;20.40;99.90
18733;DHT22;9495;51.210;2.934;2022-07-05T14:43:00;20.50;99.90
18733;DHT22;9495;51.210;2.934;2022-07-05T14:45:28;20.60;99.90
18733;DHT22;9495;51.210;2.934;2022-07-05T14:47:57;20.80;99.90
18733;DHT22;9495;51.210;2.934;2022-07-05T14:50:25;20.50;99.90
18733;DHT22;9495;51.210;2.934;2022-07-05T14:52:55;20.60;99.90
18733;DHT22;9495;51.210;2.934;2022-07-05T14:55:23;20.50;99.90
18733;DHT22;9495;51.210;2.934;2022-07-05T14:57:51;20.80;99.90
18733;DHT22;9495;51.210;2.934;2022-07-05T15:00:20;21.00;99.90
18733;DHT22;9495;51.210;2.934;2022-07-05T15:02:48;21.00;99.90
18733;DHT22;9495;51.210;2.934;2022-07-05T15:05:25;21.10;99.90
18733;DHT22;9495;51.210;2.934;2022-07-05T15:07:54;21.10;99.90
18733;DHT22;9495;51.210;2.934;2022-07-05T15:10:23;21.30;99.90
18733;DHT22;9495;51.210;2.934;2022-07-05T15:12:52;21.10;99.90
18733;DHT22;9495;51.210;2.934;2022-07-05T15:15:20;20.90;99.90
18733;DHT22;9495;51.210;2.934;2022-07-05T15:17:48;20.80;99.90
18733;DHT22;9495;51.210;2.934;2022-07-05T15:20:17;20.90;99.90
18733;DHT22;9495;51.210;2.934;2022-07-05T15:22:49;20.90;99.90
18733;DHT22;9495;51.210;2.934;2022-07-05T15:25:21;21.00;99.90
18733;DHT22;9495;51.210;2.934;2022-07-05T15:27:49;20.70;99.90
18733;DHT22;9495;51.210;2.934;2022-07-05T15:30:17;21.10;99.90
18733;DHT22;9495;51.210;2.934;2022-07-05T15:32:49;20.80;99.90
18733;DHT22;9495;51.210;2.934;2022-07-05T15:35:25;20.70;99.90
18733;DHT22;9495;51.210;2.934;2022-07-05T15:37:54;20.70;99.90
18733;DHT22;9495;51.210;2.934;2022-07-05T15:40:23;20.90;99.90
18733;DHT22;9495;51.210;2.934;2022-07-05T15:42:52;21.80;99.90
18733;DHT22;9495;51.210;2.934;2022-07-05T15:45:20;22.60;99.90
18733;DHT22;9495;51.210;2.934;2022-07-05T15:47:48;22.60;99.90
18733;DHT22;9495;51.210;2.934;2022-07-05T15:50:18;21.90;99.90
18733;DHT22;9495;51.210;2.934;2022-07-05T15:52:47;21.50;99.90
18733;DHT22;9495;51.210;2.934;2022-07-05T15:55:15;21.30;99.90
18733;DHT22;9495;51.210;2.934;2022-07-05T15:57:45;21.30;99.90
18733;DHT22;9495;51.210;2.934;2022-07-05T16:00:14;21.70;99.90
18733;DHT22;9495;51.210;2.934;2022-07-05T16:02:42;21.60;99.90
18733;DHT22;9495;51.210;2.934;2022-07-05T16:05:11;21.50;99.90
18733;DHT22;9495;51.210;2.934;2022-07-05T16:07:40;21.50;99.90
18733;DHT22;9495;51.210;2.934;2022-07-05T16:10:09;21.50;99.90
18733;DHT22;9495;51.210;2.934;2022-07-05T16:13:00;21.70;99.90